sensor_id;sensor_type;location;lat;lon;timestamp;P1;durP1;ratioP1;P2;durP2;ratioP2
27802;SDS011;15182;48.174;11.562;2023-05-23T00:02:24;8.05;;;7.38;;
27802;SDS011;15182;48.174;11.562;2023-05-23T00:04:53;7.35;;;6.68;;
27802;SDS011;15182;48.174;11.562;2023-05-23T00:07:24;7.15;;;6.55;;
27802;SDS011;15182;48.174;11.562;2023-05-23T00:09:52;7.90;;;7.28;;
27802;SDS011;15182;48.174;11.562;2023-05-23T00:12:20;7.60;;;6.97;;
27802;SDS011;15182;48.174;11.562;2023-05-23T00:14:48;7.57;;;7.03;;
27802;SDS011;15182;48.174;11.562;2023-05-23T00:17:18;6.47;;;6.15;;
27802;SDS011;15182;48.174;11.562;2023-05-23T00:19:46;6.82;;;6.32;;
27802;SDS011;15182;48.174;11.562;2023-05-23T00:22:14;6.63;;;6.10;;
27802;SDS011;15182;48.174;11.562;2023-05-23T00:24:43;7.15;;;6.72;;
27802;SDS011;15182;48.174;11.562;2023-05-23T00:27:11;8.63;;;7.10;;
27802;SDS011;15182;48.174;11.562;2023-05-23T00:29:38;6.85;;;6.35;;
27802;SDS011;15182;48.174;11.562;2023-05-23T00:32:06;15.68;;;6.78;;
27802;SDS011;15182;48.174;11.562;2023-05-23T00:34:34;6.65;;;6.20;;
27802;SDS011;15182;48.174;11.562;2023-05-23T00:37:03;7.30;;;6.70;;
27802;SDS011;15182;48.174;11.562;2023-05-23T00:39:31;7.20;;;6.63;;
27802;SDS011;15182;48.174;11.562;2023-05-23T00:42:02;6.90;;;6.50;;
27802;SDS011;15182;48.174;11.562;2023-05-23T00:44:31;6.85;;;6.43;;
27802;SDS011;15182;48.174;11.562;2023-05-23T00:46:59;7.22;;;6.65;;
27802;SDS011;15182;48.174;11.562;2023-05-23T00:49:27;7.55;;;6.93;;
27802;SDS011;15182;48.174;11.562;2023-05-23T00:51:55;6.57;;;6.18;;
27802;SDS011;15182;48.174;11.562;2023-05-23T00:54:23;6.38;;;5.90;;
27802;SDS011;15182;48.174;11.562;2023-05-23T00:56:53;6.50;;;6.07;;
27802;SDS011;15182;48.174;11.562;2023-05-23T00:59:23;6.55;;;6.15;;
27802;SDS011;15182;48.174;11.562;2023-05-23T01:01:52;6.45;;;6.10;;
27802;SDS011;15182;48.174;11.562;2023-05-23T01:04:22;7.75;;;7.15;;
27802;SDS011;15182;48.174;11.562;2023-05-23T01:06:51;6.85;;;6.32;;
27802;SDS011;15182;48.174;11.562;2023-05-23T01:09:20;7.55;;;7.00;;
27802;SDS011;15182;48.174;11.562;2023-05-23T01:11:52;6.72;;;6.32;;
27802;SDS011;15182;48.174;11.562;2023-05-23T01:14:34;7.35;;;6.85;;
27802;SDS011;15182;48.174;11.562;2023-05-23T01:17:10;7.28;;;6.68;;
27802;SDS011;15182;48.174;11.562;2023-05-23T01:22:41;7.05;;;6.50;;
27802;SDS011;15182;48.174;11.562;2023-05-23T01:25:32;6.40;;;6.00;;
27802;SDS011;15182;48.174;11.562;2023-05-23T01:28:20;6.93;;;6.28;;
27802;SDS011;15182;48.174;11.562;2023-05-23T01:30:50;6.70;;;6.30;;
27802;SDS011;15182;48.174;11.562;2023-05-23T01:33:19;6.70;;;6.28;;
27802;SDS011;15182;48.174;11.562;2023-05-23T01:35:48;6.93;;;6.53;;
27802;SDS011;15182;48.174;11.562;2023-05-23T01:38:16;7.65;;;6.95;;
27802;SDS011;15182;48.174;11.562;2023-05-23T01:40:44;7.18;;;6.57;;
27802;SDS011;15182;48.174;11.562;2023-05-23T01:43:12;7.45;;;6.93;;
27802;SDS011;15182;48.174;11.562;2023-05-23T01:45:41;7.07;;;6.57;;
27802;SDS011;15182;48.174;11.562;2023-05-23T01:48:09;7.57;;;7.00;;
27802;SDS011;15182;48.174;11.562;2023-05-23T01:50:39;7.78;;;7.07;;
27802;SDS011;15182;48.174;11.562;2023-05-23T01:53:10;8.32;;;6.72;;
27802;SDS011;15182;48.174;11.562;2023-05-23T01:55:40;8.20;;;7.40;;
27802;SDS011;15182;48.174;11.562;2023-05-23T01:58:10;7.13;;;6.63;;
27802;SDS011;15182;48.174;11.562;2023-05-23T02:00:37;7.45;;;6.85;;
27802;SDS011;15182;48.174;11.562;2023-05-23T02:03:07;7.75;;;7.25;;
27802;SDS011;15182;48.174;11.562;2023-05-23T02:05:35;7.43;;;6.93;;
27802;SDS011;15182;48.174;11.562;2023-05-23T02:08:02;7.03;;;6.53;;
27802;SDS011;15182;48.174;11.562;2023-05-23T02:10:30;7.07;;;6.57;;
27802;SDS011;15182;48.174;11.562;2023-05-23T02:13:00;7.18;;;6.47;;
27802;SDS011;15182;48.174;11.562;2023-05-23T02:15:27;9.57;;;7.10;;
27802;SDS011;15182;48.174;11.562;2023-05-23T02:17:57;7.78;;;7.05;;
27802;SDS011;15182;48.174;11.562;2023-05-23T02:20:28;7.13;;;6.57;;
27802;SDS011;15182;48.174;11.562;2023-05-23T02:22:55;6.97;;;6.38;;
27802;SDS011;15182;48.174;11.562;2023-05-23T02:25:23;8.25;;;7.45;;
27802;SDS011;15182;48.174;11.562;2023-05-23T02:27:51;7.97;;;7.38;;
27802;SDS011;15182;48.174;11.562;2023-05-23T02:30:19;7.10;;;6.55;;
27802;SDS011;15182;48.174;11.562;2023-05-23T02:32:48;7.97;;;7.38;;
27802;SDS011;15182;48.174;11.562;2023-05-23T02:35:17;8.10;;;7.40;;
27802;SDS011;15182;48.174;11.562;2023-05-23T02:37:46;8.20;;;7.50;;
27802;SDS011;15182;48.174;11.562;2023-05-23T02:40:13;9.70;;;7.63;;
27802;SDS011;15182;48.174;11.562;2023-05-23T02:42:41;8.50;;;7.40;;
27802;SDS011;15182;48.174;11.562;2023-05-23T02:45:09;7.75;;;7.10;;
27802;SDS011;15182;48.174;11.562;2023-05-23T02:47:38;7.32;;;6.72;;
27802;SDS011;15182;48.174;11.562;2023-05-23T02:50:08;8.35;;;7.65;;
27802;SDS011;15182;48.174;11.562;2023-05-23T02:52:37;8.45;;;7.80;;
27802;SDS011;15182;48.174;11.562;2023-05-23T02:55:06;8.57;;;7.78;;
27802;SDS011;15182;48.174;11.562;2023-05-23T02:57:40;7.75;;;7.15;;
27802;SDS011;15182;48.174;11.562;2023-05-23T03:00:08;7.47;;;6.78;;
27802;SDS011;15182;48.174;11.562;2023-05-23T03:02:37;8.52;;;7.78;;
27802;SDS011;15182;48.174;11.562;2023-05-23T03:05:06;8.90;;;7.97;;
27802;SDS011;15182;48.174;11.562;2023-05-23T03:07:34;8.75;;;6.90;;
27802;SDS011;15182;48.174;11.562;2023-05-23T03:10:03;9.40;;;7.50;;
27802;SDS011;15182;48.174;11.562;2023-05-23T03:12:33;8.88;;;7.97;;
27802;SDS011;15182;48.174;11.562;2023-05-23T03:15:01;8.73;;;7.93;;
27802;SDS011;15182;48.174;11.562;2023-05-23T03:17:30;8.52;;;7.72;;
27802;SDS011;15182;48.174;11.562;2023-05-23T03:19:58;9.93;;;7.82;;
27802;SDS011;15182;48.174;11.562;2023-05-23T03:22:26;8.07;;;7.47;;
27802;SDS011;15182;48.174;11.562;2023-05-23T03:24:53;8.18;;;7.55;;
27802;SDS011;15182;48.174;11.562;2023-05-23T03:27:23;7.90;;;7.13;;
27802;SDS011;15182;48.174;11.562;2023-05-23T03:29:50;8.38;;;7.50;;
27802;SDS011;15182;48.174;11.562;2023-05-23T03:32:18;8.82;;;7.65;;
27802;SDS011;15182;48.174;11.562;2023-05-23T03:34:46;8.75;;;7.45;;
27802;SDS011;15182;48.174;11.562;2023-05-23T03:37:13;8.40;;;7.60;;
27802;SDS011;15182;48.174;11.562;2023-05-23T03:39:41;8.70;;;8.10;;
27802;SDS011;15182;48.174;11.562;2023-05-23T03:42:09;8.38;;;7.57;;
27802;SDS011;15182;48.174;11.562;2023-05-23T03:44:38;8.55;;;7.57;;
27802;SDS011;15182;48.174;11.562;2023-05-23T03:47:06;8.18;;;7.38;;
27802;SDS011;15182;48.174;11.562;2023-05-23T03:49:36;8.68;;;7.88;;
27802;SDS011;15182;48.174;11.562;2023-05-23T03:52:04;9.35;;;8.45;;
27802;SDS011;15182;48.174;11.562;2023-05-23T03:54:33;8.18;;;7.57;;
27802;SDS011;15182;48.174;11.562;2023-05-23T03:57:01;9.07;;;8.27;;
27802;SDS011;15182;48.174;11.562;2023-05-23T03:59:29;9.18;;;7.35;;
27802;SDS011;15182;48.174;11.562;2023-05-23T04:01:59;8.57;;;7.57;;
27802;SDS011;15182;48.174;11.562;2023-05-23T04:04:26;8.32;;;7.57;;
27802;SDS011;15182;48.174;11.562;2023-05-23T04:06:55;8.90;;;8.00;;
27802;SDS011;15182;48.174;11.562;2023-05-23T04:09:23;9.48;;;8.57;;
27802;SDS011;15182;48.174;11.562;2023-05-23T04:11:52;8.38;;;7.68;;
27802;SDS011;15182;48.174;11.562;2023-05-23T04:14:21;10.10;;;8.68;;
27802;SDS011;15182;48.174;11.562;2023-05-23T04:16:50;8.52;;;7.72;;
27802;SDS011;15182;48.174;11.562;2023-05-23T04:19:19;10.88;;;8.15;;
27802;SDS011;15182;48.174;11.562;2023-05-23T04:21:47;8.88;;;8.07;;
27802;SDS011;15182;48.174;11.562;2023-05-23T04:24:16;10.15;;;9.13;;
27802;SDS011;15182;48.174;11.562;2023-05-23T04:26:44;13.68;;;8.93;;
27802;SDS011;15182;48.174;11.562;2023-05-23T04:29:12;9.95;;;8.93;;
27802;SDS011;15182;48.174;11.562;2023-05-23T04:31:41;9.65;;;8.70;;
27802;SDS011;15182;48.174;11.562;2023-05-23T04:34:10;9.40;;;8.50;;
27802;SDS011;15182;48.174;11.562;2023-05-23T04:36:40;10.38;;;8.73;;
27802;SDS011;15182;48.174;11.562;2023-05-23T04:39:09;10.70;;;9.60;;
27802;SDS011;15182;48.174;11.562;2023-05-23T04:41:44;10.70;;;9.00;;
27802;SDS011;15182;48.174;11.562;2023-05-23T04:44:21;9.18;;;8.07;;
27802;SDS011;15182;48.174;11.562;2023-05-23T04:47:05;8.85;;;8.07;;
27802;SDS011;15182;48.174;11.562;2023-05-23T04:49:52;9.15;;;8.23;;
27802;SDS011;15182;48.174;11.562;2023-05-23T04:52:23;11.57;;;9.23;;
27802;SDS011;15182;48.174;11.562;2023-05-23T04:54:52;11.70;;;9.73;;
27802;SDS011;15182;48.174;11.562;2023-05-23T04:57:20;12.63;;;10.05;;
27802;SDS011;15182;48.174;11.562;2023-05-23T04:59:48;15.70;;;10.82;;
27802;SDS011;15182;48.174;11.562;2023-05-23T05:02:16;11.88;;;10.23;;
27802;SDS011;15182;48.174;11.562;2023-05-23T05:04:44;12.60;;;10.45;;
27802;SDS011;15182;48.174;11.562;2023-05-23T05:07:12;12.68;;;9.75;;
27802;SDS011;15182;48.174;11.562;2023-05-23T05:09:42;12.40;;;9.60;;
27802;SDS011;15182;48.174;11.562;2023-05-23T05:12:11;12.77;;;9.90;;
27802;SDS011;15182;48.174;11.562;2023-05-23T05:14:39;10.90;;;9.35;;
27802;SDS011;15182;48.174;11.562;2023-05-23T05:17:07;10.55;;;9.13;;
27802;SDS011;15182;48.174;11.562;2023-05-23T05:19:48;10.88;;;9.73;;
27802;SDS011;15182;48.174;11.562;2023-05-23T05:22:16;10.63;;;9.63;;
27802;SDS011;15182;48.174;11.562;2023-05-23T05:24:45;10.13;;;9.07;;
27802;SDS011;15182;48.174;11.562;2023-05-23T05:27:13;10.25;;;9.25;;
27802;SDS011;15182;48.174;11.562;2023-05-23T05:29:41;10.32;;;9.20;;
27802;SDS011;15182;48.174;11.562;2023-05-23T05:32:09;15.05;;;9.73;;
27802;SDS011;15182;48.174;11.562;2023-05-23T05:34:36;13.35;;;9.57;;
27802;SDS011;15182;48.174;11.562;2023-05-23T05:37:05;12.50;;;10.43;;
27802;SDS011;15182;48.174;11.562;2023-05-23T05:39:33;16.50;;;10.60;;
27802;SDS011;15182;48.174;11.562;2023-05-23T05:42:02;13.00;;;10.05;;
27802;SDS011;15182;48.174;11.562;2023-05-23T05:44:31;12.43;;;10.55;;
27802;SDS011;15182;48.174;11.562;2023-05-23T05:46:58;12.05;;;10.50;;
27802;SDS011;15182;48.174;11.562;2023-05-23T05:49:26;12.18;;;10.10;;
27802;SDS011;15182;48.174;11.562;2023-05-23T05:51:55;13.70;;;11.02;;
27802;SDS011;15182;48.174;11.562;2023-05-23T05:54:23;10.82;;;9.73;;
27802;SDS011;15182;48.174;11.562;2023-05-23T05:56:50;11.70;;;10.32;;
27802;SDS011;15182;48.174;11.562;2023-05-23T05:59:19;19.23;;;10.90;;
27802;SDS011;15182;48.174;11.562;2023-05-23T06:01:47;10.85;;;9.60;;
27802;SDS011;15182;48.174;11.562;2023-05-23T06:04:16;12.30;;;9.90;;
27802;SDS011;15182;48.174;11.562;2023-05-23T06:06:44;11.30;;;10.10;;
27802;SDS011;15182;48.174;11.562;2023-05-23T06:09:12;16.80;;;10.77;;
27802;SDS011;15182;48.174;11.562;2023-05-23T06:11:39;12.18;;;10.38;;
27802;SDS011;15182;48.174;11.562;2023-05-23T06:14:07;12.18;;;10.52;;
27802;SDS011;15182;48.174;11.562;2023-05-23T06:16:39;12.40;;;10.07;;
27802;SDS011;15182;48.174;11.562;2023-05-23T06:19:07;16.02;;;10.95;;
27802;SDS011;15182;48.174;11.562;2023-05-23T06:21:36;13.20;;;10.90;;
27802;SDS011;15182;48.174;11.562;2023-05-23T06:24:06;13.02;;;10.75;;
27802;SDS011;15182;48.174;11.562;2023-05-23T06:26:34;11.52;;;10.25;;
27802;SDS011;15182;48.174;11.562;2023-05-23T06:29:02;15.60;;;11.20;;
27802;SDS011;15182;48.174;11.562;2023-05-23T06:31:30;20.30;;;11.63;;
27802;SDS011;15182;48.174;11.562;2023-05-23T06:33:59;12.68;;;10.45;;
27802;SDS011;15182;48.174;11.562;2023-05-23T06:36:27;14.55;;;10.70;;
27802;SDS011;15182;48.174;11.562;2023-05-23T06:38:54;16.17;;;11.18;;
27802;SDS011;15182;48.174;11.562;2023-05-23T06:41:22;15.73;;;10.88;;
27802;SDS011;15182;48.174;11.562;2023-05-23T06:43:52;17.65;;;10.55;;
27802;SDS011;15182;48.174;11.562;2023-05-23T06:46:24;16.88;;;10.60;;
27802;SDS011;15182;48.174;11.562;2023-05-23T06:48:52;11.98;;;10.23;;
27802;SDS011;15182;48.174;11.562;2023-05-23T06:51:21;14.38;;;11.27;;
27802;SDS011;15182;48.174;11.562;2023-05-23T06:53:49;16.58;;;11.95;;
27802;SDS011;15182;48.174;11.562;2023-05-23T06:56:16;13.93;;;11.20;;
27802;SDS011;15182;48.174;11.562;2023-05-23T06:58:53;15.90;;;12.20;;
27802;SDS011;15182;48.174;11.562;2023-05-23T07:01:21;24.08;;;11.98;;
27802;SDS011;15182;48.174;11.562;2023-05-23T07:03:50;16.70;;;11.77;;
27802;SDS011;15182;48.174;11.562;2023-05-23T07:06:18;17.17;;;11.93;;
27802;SDS011;15182;48.174;11.562;2023-05-23T07:08:47;16.38;;;12.15;;
27802;SDS011;15182;48.174;11.562;2023-05-23T07:11:15;18.35;;;11.68;;
27802;SDS011;15182;48.174;11.562;2023-05-23T07:13:48;15.43;;;11.45;;
27802;SDS011;15182;48.174;11.562;2023-05-23T07:16:27;13.80;;;10.98;;
27802;SDS011;15182;48.174;11.562;2023-05-23T07:19:06;14.68;;;12.13;;
27802;SDS011;15182;48.174;11.562;2023-05-23T07:21:41;17.30;;;12.13;;
27802;SDS011;15182;48.174;11.562;2023-05-23T07:24:09;13.65;;;12.15;;
27802;SDS011;15182;48.174;11.562;2023-05-23T07:26:37;15.75;;;12.23;;
27802;SDS011;15182;48.174;11.562;2023-05-23T07:29:05;13.88;;;11.93;;
27802;SDS011;15182;48.174;11.562;2023-05-23T07:31:33;16.35;;;11.75;;
27802;SDS011;15182;48.174;11.562;2023-05-23T07:34:01;14.90;;;12.23;;
27802;SDS011;15182;48.174;11.562;2023-05-23T07:36:37;12.82;;;11.15;;
27802;SDS011;15182;48.174;11.562;2023-05-23T07:39:09;14.82;;;11.95;;
27802;SDS011;15182;48.174;11.562;2023-05-23T07:41:38;17.08;;;12.75;;
27802;SDS011;15182;48.174;11.562;2023-05-23T07:44:05;15.43;;;12.85;;
27802;SDS011;15182;48.174;11.562;2023-05-23T07:46:34;13.00;;;11.60;;
27802;SDS011;15182;48.174;11.562;2023-05-23T07:49:02;16.67;;;12.90;;
27802;SDS011;15182;48.174;11.562;2023-05-23T07:51:29;22.65;;;12.52;;
27802;SDS011;15182;48.174;11.562;2023-05-23T07:53:58;16.08;;;12.07;;
27802;SDS011;15182;48.174;11.562;2023-05-23T07:56:28;15.48;;;12.65;;
27802;SDS011;15182;48.174;11.562;2023-05-23T07:58:56;16.88;;;12.35;;
27802;SDS011;15182;48.174;11.562;2023-05-23T08:01:23;25.08;;;13.32;;
27802;SDS011;15182;48.174;11.562;2023-05-23T08:04:05;16.38;;;12.63;;
27802;SDS011;15182;48.174;11.562;2023-05-23T08:06:38;17.33;;;12.75;;
27802;SDS011;15182;48.174;11.562;2023-05-23T08:09:09;17.55;;;12.73;;
27802;SDS011;15182;48.174;11.562;2023-05-23T08:11:42;18.80;;;12.13;;
27802;SDS011;15182;48.174;11.562;2023-05-23T08:14:10;18.60;;;12.43;;
27802;SDS011;15182;48.174;11.562;2023-05-23T08:16:38;17.88;;;12.32;;
27802;SDS011;15182;48.174;11.562;2023-05-23T08:19:11;17.55;;;12.80;;
27802;SDS011;15182;48.174;11.562;2023-05-23T08:21:39;13.60;;;11.55;;
27802;SDS011;15182;48.174;11.562;2023-05-23T08:24:07;22.63;;;12.38;;
27802;SDS011;15182;48.174;11.562;2023-05-23T08:26:36;16.42;;;12.43;;
27802;SDS011;15182;48.174;11.562;2023-05-23T08:29:08;19.77;;;12.82;;
27802;SDS011;15182;48.174;11.562;2023-05-23T08:31:35;20.45;;;13.68;;
27802;SDS011;15182;48.174;11.562;2023-05-23T08:34:05;17.15;;;12.85;;
27802;SDS011;15182;48.174;11.562;2023-05-23T08:36:35;19.70;;;12.70;;
27802;SDS011;15182;48.174;11.562;2023-05-23T08:39:06;15.73;;;12.13;;
27802;SDS011;15182;48.174;11.562;2023-05-23T08:41:40;17.00;;;12.10;;
27802;SDS011;15182;48.174;11.562;2023-05-23T08:44:12;14.45;;;12.02;;
27802;SDS011;15182;48.174;11.562;2023-05-23T08:46:54;15.70;;;11.75;;
27802;SDS011;15182;48.174;11.562;2023-05-23T08:49:39;15.60;;;11.43;;
27802;SDS011;15182;48.174;11.562;2023-05-23T08:52:08;15.02;;;12.63;;
27802;SDS011;15182;48.174;11.562;2023-05-23T08:54:42;18.13;;;12.85;;
27802;SDS011;15182;48.174;11.562;2023-05-23T08:57:12;15.13;;;12.43;;
27802;SDS011;15182;48.174;11.562;2023-05-23T08:59:46;15.13;;;11.95;;
27802;SDS011;15182;48.174;11.562;2023-05-23T09:02:15;15.90;;;12.35;;
27802;SDS011;15182;48.174;11.562;2023-05-23T09:04:45;16.33;;;11.57;;
27802;SDS011;15182;48.174;11.562;2023-05-23T09:07:17;15.23;;;11.85;;
27802;SDS011;15182;48.174;11.562;2023-05-23T09:09:47;16.90;;;12.93;;
27802;SDS011;15182;48.174;11.562;2023-05-23T09:12:16;16.77;;;13.52;;
27802;SDS011;15182;48.174;11.562;2023-05-23T09:14:49;14.07;;;12.45;;
27802;SDS011;15182;48.174;11.562;2023-05-23T09:17:17;20.70;;;13.77;;
27802;SDS011;15182;48.174;11.562;2023-05-23T09:19:46;17.45;;;13.40;;
27802;SDS011;15182;48.174;11.562;2023-05-23T09:22:24;18.20;;;13.25;;
27802;SDS011;15182;48.174;11.562;2023-05-23T09:25:07;20.65;;;12.43;;
27802;SDS011;15182;48.174;11.562;2023-05-23T09:27:38;16.42;;;12.77;;
27802;SDS011;15182;48.174;11.562;2023-05-23T09:30:09;17.95;;;12.98;;
27802;SDS011;15182;48.174;11.562;2023-05-23T09:32:38;16.25;;;11.98;;
27802;SDS011;15182;48.174;11.562;2023-05-23T09:35:07;15.73;;;12.20;;
27802;SDS011;15182;48.174;11.562;2023-05-23T09:37:38;17.13;;;12.45;;
27802;SDS011;15182;48.174;11.562;2023-05-23T09:40:12;16.45;;;11.98;;
27802;SDS011;15182;48.174;11.562;2023-05-23T09:42:51;15.77;;;11.55;;
27802;SDS011;15182;48.174;11.562;2023-05-23T09:45:21;16.23;;;12.90;;
27802;SDS011;15182;48.174;11.562;2023-05-23T09:47:56;16.40;;;12.30;;
27802;SDS011;15182;48.174;11.562;2023-05-23T09:50:25;16.75;;;12.88;;
27802;SDS011;15182;48.174;11.562;2023-05-23T09:52:58;19.30;;;13.02;;
27802;SDS011;15182;48.174;11.562;2023-05-23T09:55:26;21.02;;;13.48;;
27802;SDS011;15182;48.174;11.562;2023-05-23T09:57:54;18.33;;;12.98;;
27802;SDS011;15182;48.174;11.562;2023-05-23T10:00:27;17.35;;;13.27;;
27802;SDS011;15182;48.174;11.562;2023-05-23T10:02:57;22.75;;;13.85;;
27802;SDS011;15182;48.174;11.562;2023-05-23T10:05:37;16.75;;;12.35;;
27802;SDS011;15182;48.174;11.562;2023-05-23T10:08:12;19.30;;;13.68;;
27802;SDS011;15182;48.174;11.562;2023-05-23T10:10:59;20.83;;;14.30;;
27802;SDS011;15182;48.174;11.562;2023-05-23T10:14:14;19.85;;;12.65;;
27802;SDS011;15182;48.174;11.562;2023-05-23T10:16:46;18.70;;;13.85;;
27802;SDS011;15182;48.174;11.562;2023-05-23T10:19:23;18.50;;;13.52;;
27802;SDS011;15182;48.174;11.562;2023-05-23T10:21:55;16.95;;;12.02;;
27802;SDS011;15182;48.174;11.562;2023-05-23T10:24:26;16.52;;;13.27;;
27802;SDS011;15182;48.174;11.562;2023-05-23T10:26:54;17.45;;;13.10;;
27802;SDS011;15182;48.174;11.562;2023-05-23T10:29:22;16.27;;;13.45;;
27802;SDS011;15182;48.174;11.562;2023-05-23T10:31:52;17.42;;;13.95;;
27802;SDS011;15182;48.174;11.562;2023-05-23T10:34:23;19.15;;;13.00;;
27802;SDS011;15182;48.174;11.562;2023-05-23T10:36:58;16.83;;;13.07;;
27802;SDS011;15182;48.174;11.562;2023-05-23T10:39:32;17.42;;;13.75;;
27802;SDS011;15182;48.174;11.562;2023-05-23T10:42:14;15.90;;;13.07;;
27802;SDS011;15182;48.174;11.562;2023-05-23T10:44:46;19.45;;;12.20;;
27802;SDS011;15182;48.174;11.562;2023-05-23T10:47:23;15.98;;;12.80;;
27802;SDS011;15182;48.174;11.562;2023-05-23T10:49:53;18.80;;;12.75;;
27802;SDS011;15182;48.174;11.562;2023-05-23T10:52:22;15.95;;;12.48;;
27802;SDS011;15182;48.174;11.562;2023-05-23T10:54:55;19.08;;;12.35;;
27802;SDS011;15182;48.174;11.562;2023-05-23T10:57:24;14.82;;;12.13;;
27802;SDS011;15182;48.174;11.562;2023-05-23T11:00:03;12.80;;;11.07;;
27802;SDS011;15182;48.174;11.562;2023-05-23T19:53:19;2.00;;;2.00;;
27802;SDS011;15182;48.174;11.562;2023-05-23T19:55:47;2.30;;;2.30;;
27802;SDS011;15182;48.174;11.562;2023-05-23T19:58:15;2.28;;;2.28;;
27802;SDS011;15182;48.174;11.562;2023-05-23T20:00:44;2.83;;;2.83;;
27802;SDS011;15182;48.174;11.562;2023-05-23T20:03:11;2.90;;;2.80;;
27802;SDS011;15182;48.174;11.562;2023-05-23T20:05:39;4.85;;;2.88;;
27802;SDS011;15182;48.174;11.562;2023-05-23T20:08:07;2.85;;;2.75;;
27802;SDS011;15182;48.174;11.562;2023-05-23T20:10:36;3.25;;;3.10;;
27802;SDS011;15182;48.174;11.562;2023-05-23T20:13:04;3.50;;;3.40;;
27802;SDS011;15182;48.174;11.562;2023-05-23T20:15:32;2.85;;;2.75;;
27802;SDS011;15182;48.174;11.562;2023-05-23T20:18:00;3.13;;;3.03;;
27802;SDS011;15182;48.174;11.562;2023-05-23T20:27:59;3.25;;;3.05;;
27802;SDS011;15182;48.174;11.562;2023-05-23T20:30:26;4.43;;;3.00;;
27802;SDS011;15182;48.174;11.562;2023-05-23T20:32:53;2.78;;;2.67;;
27802;SDS011;15182;48.174;11.562;2023-05-23T20:35:20;3.05;;;2.88;;
27802;SDS011;15182;48.174;11.562;2023-05-23T20:37:48;2.80;;;2.67;;
27802;SDS011;15182;48.174;11.562;2023-05-23T20:40:16;2.70;;;2.70;;
27802;SDS011;15182;48.174;11.562;2023-05-23T20:42:43;2.90;;;2.80;;
27802;SDS011;15182;48.174;11.562;2023-05-23T20:45:11;2.88;;;2.80;;
27802;SDS011;15182;48.174;11.562;2023-05-23T20:52:44;3.00;;;2.90;;
27802;SDS011;15182;48.174;11.562;2023-05-23T20:55:12;3.20;;;3.00;;
27802;SDS011;15182;48.174;11.562;2023-05-23T20:57:40;2.70;;;2.60;;
27802;SDS011;15182;48.174;11.562;2023-05-23T21:00:07;2.80;;;2.80;;
27802;SDS011;15182;48.174;11.562;2023-05-23T21:02:37;2.75;;;2.65;;
27802;SDS011;15182;48.174;11.562;2023-05-23T21:05:05;2.58;;;2.55;;
27802;SDS011;15182;48.174;11.562;2023-05-23T21:07:33;2.28;;;2.28;;
27802;SDS011;15182;48.174;11.562;2023-05-23T21:10:02;3.60;;;3.25;;
27802;SDS011;15182;48.174;11.562;2023-05-23T21:17:36;2.88;;;2.78;;
27802;SDS011;15182;48.174;11.562;2023-05-23T21:20:04;2.50;;;2.50;;
27802;SDS011;15182;48.174;11.562;2023-05-23T21:22:32;2.42;;;2.42;;
27802;SDS011;15182;48.174;11.562;2023-05-23T21:24:59;2.90;;;2.90;;
27802;SDS011;15182;48.174;11.562;2023-05-23T21:27:27;2.45;;;2.45;;
27802;SDS011;15182;48.174;11.562;2023-05-23T21:29:54;2.90;;;2.83;;
27802;SDS011;15182;48.174;11.562;2023-05-23T21:32:21;2.70;;;2.70;;
27802;SDS011;15182;48.174;11.562;2023-05-23T21:34:49;2.70;;;2.60;;
27802;SDS011;15182;48.174;11.562;2023-05-23T21:42:21;2.42;;;2.42;;
27802;SDS011;15182;48.174;11.562;2023-05-23T21:44:49;4.28;;;3.08;;
27802;SDS011;15182;48.174;11.562;2023-05-23T21:47:16;3.00;;;2.90;;
27802;SDS011;15182;48.174;11.562;2023-05-23T21:49:45;2.70;;;2.50;;
27802;SDS011;15182;48.174;11.562;2023-05-23T21:52:13;2.60;;;2.45;;
27802;SDS011;15182;48.174;11.562;2023-05-23T21:54:40;3.10;;;2.90;;
27802;SDS011;15182;48.174;11.562;2023-05-23T21:57:07;2.78;;;2.72;;
27802;SDS011;15182;48.174;11.562;2023-05-23T21:59:35;2.75;;;2.75;;
27802;SDS011;15182;48.174;11.562;2023-05-23T22:09:34;2.88;;;2.78;;
27802;SDS011;15182;48.174;11.562;2023-05-23T22:12:02;2.72;;;2.67;;
27802;SDS011;15182;48.174;11.562;2023-05-23T22:14:29;2.88;;;2.78;;
27802;SDS011;15182;48.174;11.562;2023-05-23T22:16:56;2.92;;;2.83;;
27802;SDS011;15182;48.174;11.562;2023-05-23T22:19:26;2.75;;;2.65;;
27802;SDS011;15182;48.174;11.562;2023-05-23T22:21:54;3.10;;;3.03;;
27802;SDS011;15182;48.174;11.562;2023-05-23T22:24:21;2.97;;;2.88;;
27802;SDS011;15182;48.174;11.562;2023-05-23T22:26:50;2.88;;;2.78;;
27802;SDS011;15182;48.174;11.562;2023-05-23T22:34:22;2.60;;;2.60;;
27802;SDS011;15182;48.174;11.562;2023-05-23T22:36:50;2.90;;;2.70;;
27802;SDS011;15182;48.174;11.562;2023-05-23T22:39:17;3.10;;;2.90;;
27802;SDS011;15182;48.174;11.562;2023-05-23T22:41:44;2.55;;;2.55;;
27802;SDS011;15182;48.174;11.562;2023-05-23T22:44:11;2.58;;;2.58;;
27802;SDS011;15182;48.174;11.562;2023-05-23T22:46:39;3.47;;;3.17;;
27802;SDS011;15182;48.174;11.562;2023-05-23T22:49:07;3.22;;;3.03;;
27802;SDS011;15182;48.174;11.562;2023-05-23T22:51:35;3.08;;;2.97;;
27802;SDS011;15182;48.174;11.562;2023-05-23T23:01:28;2.60;;;2.60;;
27802;SDS011;15182;48.174;11.562;2023-05-23T23:03:56;2.92;;;2.83;;
27802;SDS011;15182;48.174;11.562;2023-05-23T23:06:23;2.97;;;2.88;;
27802;SDS011;15182;48.174;11.562;2023-05-23T23:08:51;2.90;;;2.90;;
27802;SDS011;15182;48.174;11.562;2023-05-23T23:11:18;2.85;;;2.85;;
27802;SDS011;15182;48.174;11.562;2023-05-23T23:13:45;2.67;;;2.60;;
27802;SDS011;15182;48.174;11.562;2023-05-23T23:16:13;2.78;;;2.67;;
27802;SDS011;15182;48.174;11.562;2023-05-23T23:18:44;2.40;;;2.30;;
27802;SDS011;15182;48.174;11.562;2023-05-23T23:26:17;2.50;;;2.40;;
27802;SDS011;15182;48.174;11.562;2023-05-23T23:28:44;2.55;;;2.42;;
27802;SDS011;15182;48.174;11.562;2023-05-23T23:31:12;2.33;;;2.22;;
27802;SDS011;15182;48.174;11.562;2023-05-23T23:33:39;2.35;;;2.35;;
27802;SDS011;15182;48.174;11.562;2023-05-23T23:36:06;2.53;;;2.42;;
27802;SDS011;15182;48.174;11.562;2023-05-23T23:38:34;2.45;;;2.45;;
27802;SDS011;15182;48.174;11.562;2023-05-23T23:41:02;2.13;;;2.13;;
27802;SDS011;15182;48.174;11.562;2023-05-23T23:43:30;2.30;;;2.30;;
27802;SDS011;15182;48.174;11.562;2023-05-23T23:51:03;2.47;;;2.47;;
27802;SDS011;15182;48.174;11.562;2023-05-23T23:53:31;2.40;;;2.40;;
27802;SDS011;15182;48.174;11.562;2023-05-23T23:55:58;4.57;;;2.80;;
27802;SDS011;15182;48.174;11.562;2023-05-23T23:58:26;2.53;;;2.53;;
